sensor_id;sensor_type;location;lat;lon;timestamp;temperature;humidity
26224;DHT22;14820;48.682;8.890;2023-07-28T00:00:24;15.60;99.90
26224;DHT22;14820;48.682;8.890;2023-07-28T00:02:50;15.50;99.90
26224;DHT22;14820;48.682;8.890;2023-07-28T00:05:15;15.50;99.90
26224;DHT22;14820;48.682;8.890;2023-07-28T00:07:41;15.50;99.90
26224;DHT22;14820;48.682;8.890;2023-07-28T00:10:07;15.50;99.90
26224;DHT22;14820;48.682;8.890;2023-07-28T00:12:34;15.50;99.90
26224;DHT22;14820;48.682;8.890;2023-07-28T00:14:59;15.50;99.90
26224;DHT22;14820;48.682;8.890;2023-07-28T00:17:25;15.40;99.90
26224;DHT22;14820;48.682;8.890;2023-07-28T00:19:51;15.40;99.90
26224;DHT22;14820;48.682;8.890;2023-07-28T00:22:16;15.40;99.90
26224;DHT22;14820;48.682;8.890;2023-07-28T00:24:42;15.30;99.90
26224;DHT22;14820;48.682;8.890;2023-07-28T00:27:08;15.30;99.90
26224;DHT22;14820;48.682;8.890;2023-07-28T00:29:33;15.30;99.90
26224;DHT22;14820;48.682;8.890;2023-07-28T00:31:59;15.30;99.90
26224;DHT22;14820;48.682;8.890;2023-07-28T00:34:24;15.20;99.90
26224;DHT22;14820;48.682;8.890;2023-07-28T00:36:50;15.20;99.90
26224;DHT22;14820;48.682;8.890;2023-07-28T00:39:16;15.10;99.90
26224;DHT22;14820;48.682;8.890;2023-07-28T00:41:41;15.10;99.90
26224;DHT22;14820;48.682;8.890;2023-07-28T00:44:07;15.00;99.90
26224;DHT22;14820;48.682;8.890;2023-07-28T00:46:32;15.00;99.90
26224;DHT22;14820;48.682;8.890;2023-07-28T00:48:58;15.00;99.90
26224;DHT22;14820;48.682;8.890;2023-07-28T00:51:24;14.90;99.90
26224;DHT22;14820;48.682;8.890;2023-07-28T00:53:50;14.90;99.90
26224;DHT22;14820;48.682;8.890;2023-07-28T00:56:19;14.90;99.90
26224;DHT22;14820;48.682;8.890;2023-07-28T00:58:45;14.80;99.90
26224;DHT22;14820;48.682;8.890;2023-07-28T01:01:11;14.80;99.90
26224;DHT22;14820;48.682;8.890;2023-07-28T01:03:36;14.80;99.90
26224;DHT22;14820;48.682;8.890;2023-07-28T01:06:24;14.70;99.90
26224;DHT22;14820;48.682;8.890;2023-07-28T01:11:26;14.80;99.90
26224;DHT22;14820;48.682;8.890;2023-07-28T01:13:52;14.80;99.90
26224;DHT22;14820;48.682;8.890;2023-07-28T01:16:18;14.80;99.90
26224;DHT22;14820;48.682;8.890;2023-07-28T01:18:43;14.90;99.90
26224;DHT22;14820;48.682;8.890;2023-07-28T01:21:17;14.90;99.90
26224;DHT22;14820;48.682;8.890;2023-07-28T01:23:58;14.90;99.90
26224;DHT22;14820;48.682;8.890;2023-07-28T01:26:37;14.90;99.90
26224;DHT22;14820;48.682;8.890;2023-07-28T01:29:06;14.80;99.90
26224;DHT22;14820;48.682;8.890;2023-07-28T01:31:32;14.60;99.90
26224;DHT22;14820;48.682;8.890;2023-07-28T01:33:57;14.60;99.90
26224;DHT22;14820;48.682;8.890;2023-07-28T01:36:23;14.50;99.90
26224;DHT22;14820;48.682;8.890;2023-07-28T01:38:49;14.40;99.90
26224;DHT22;14820;48.682;8.890;2023-07-28T01:41:15;14.40;99.90
26224;DHT22;14820;48.682;8.890;2023-07-28T01:43:40;14.40;99.90
26224;DHT22;14820;48.682;8.890;2023-07-28T01:46:07;14.40;99.90
26224;DHT22;14820;48.682;8.890;2023-07-28T01:48:33;14.40;99.90
26224;DHT22;14820;48.682;8.890;2023-07-28T01:50:58;14.40;99.90
26224;DHT22;14820;48.682;8.890;2023-07-28T01:53:24;14.40;99.90
26224;DHT22;14820;48.682;8.890;2023-07-28T01:55:50;14.30;99.90
26224;DHT22;14820;48.682;8.890;2023-07-28T01:58:15;14.30;99.90
26224;DHT22;14820;48.682;8.890;2023-07-28T02:00:41;14.40;99.90
26224;DHT22;14820;48.682;8.890;2023-07-28T02:03:06;14.30;99.90
26224;DHT22;14820;48.682;8.890;2023-07-28T02:05:32;14.30;99.90
26224;DHT22;14820;48.682;8.890;2023-07-28T02:07:58;14.30;99.90
26224;DHT22;14820;48.682;8.890;2023-07-28T02:10:25;14.30;99.90
26224;DHT22;14820;48.682;8.890;2023-07-28T02:12:51;14.20;99.90
26224;DHT22;14820;48.682;8.890;2023-07-28T02:15:17;14.10;99.90
26224;DHT22;14820;48.682;8.890;2023-07-28T02:17:43;14.10;99.90
26224;DHT22;14820;48.682;8.890;2023-07-28T02:20:08;14.10;99.90
26224;DHT22;14820;48.682;8.890;2023-07-28T02:22:39;14.10;99.90
26224;DHT22;14820;48.682;8.890;2023-07-28T02:25:05;14.10;99.90
26224;DHT22;14820;48.682;8.890;2023-07-28T02:27:31;14.10;99.90
26224;DHT22;14820;48.682;8.890;2023-07-28T02:29:56;14.10;99.90
26224;DHT22;14820;48.682;8.890;2023-07-28T02:32:22;14.10;99.90
26224;DHT22;14820;48.682;8.890;2023-07-28T02:34:48;14.10;99.90
26224;DHT22;14820;48.682;8.890;2023-07-28T02:37:15;14.10;99.90
26224;DHT22;14820;48.682;8.890;2023-07-28T02:39:41;14.10;99.90
26224;DHT22;14820;48.682;8.890;2023-07-28T02:42:06;14.00;99.90
26224;DHT22;14820;48.682;8.890;2023-07-28T02:44:32;14.10;99.90
26224;DHT22;14820;48.682;8.890;2023-07-28T02:46:57;14.00;99.90
26224;DHT22;14820;48.682;8.890;2023-07-28T02:49:23;13.90;99.90
26224;DHT22;14820;48.682;8.890;2023-07-28T02:51:49;13.90;99.90
26224;DHT22;14820;48.682;8.890;2023-07-28T02:54:14;14.00;99.90
26224;DHT22;14820;48.682;8.890;2023-07-28T02:56:40;14.00;99.90
26224;DHT22;14820;48.682;8.890;2023-07-28T02:59:06;14.00;99.90
26224;DHT22;14820;48.682;8.890;2023-07-28T03:01:32;14.00;99.90
26224;DHT22;14820;48.682;8.890;2023-07-28T03:04:00;14.10;99.90
26224;DHT22;14820;48.682;8.890;2023-07-28T03:06:25;14.20;99.90
26224;DHT22;14820;48.682;8.890;2023-07-28T03:08:51;14.30;99.90
26224;DHT22;14820;48.682;8.890;2023-07-28T03:11:16;14.30;99.90
26224;DHT22;14820;48.682;8.890;2023-07-28T03:13:42;14.30;99.90
26224;DHT22;14820;48.682;8.890;2023-07-28T03:16:08;14.40;99.90
26224;DHT22;14820;48.682;8.890;2023-07-28T03:18:33;14.40;99.90
26224;DHT22;14820;48.682;8.890;2023-07-28T03:20:59;14.40;99.90
26224;DHT22;14820;48.682;8.890;2023-07-28T03:23:24;14.40;99.90
26224;DHT22;14820;48.682;8.890;2023-07-28T03:25:50;14.40;99.90
26224;DHT22;14820;48.682;8.890;2023-07-28T03:28:16;14.40;99.90
26224;DHT22;14820;48.682;8.890;2023-07-28T03:30:41;14.50;99.90
26224;DHT22;14820;48.682;8.890;2023-07-28T03:33:07;14.50;99.90
26224;DHT22;14820;48.682;8.890;2023-07-28T03:35:32;14.40;99.90
26224;DHT22;14820;48.682;8.890;2023-07-28T03:37:58;14.40;99.90
26224;DHT22;14820;48.682;8.890;2023-07-28T03:40:24;14.40;99.90
26224;DHT22;14820;48.682;8.890;2023-07-28T03:42:50;14.40;99.90
26224;DHT22;14820;48.682;8.890;2023-07-28T03:45:16;14.40;99.90
26224;DHT22;14820;48.682;8.890;2023-07-28T03:47:42;14.40;99.90
26224;DHT22;14820;48.682;8.890;2023-07-28T03:50:07;14.40;99.90
26224;DHT22;14820;48.682;8.890;2023-07-28T03:52:33;14.40;99.90
26224;DHT22;14820;48.682;8.890;2023-07-28T03:54:59;14.40;99.90
26224;DHT22;14820;48.682;8.890;2023-07-28T03:57:24;14.40;99.90
26224;DHT22;14820;48.682;8.890;2023-07-28T03:59:50;14.40;99.90
26224;DHT22;14820;48.682;8.890;2023-07-28T04:02:16;14.30;99.90
26224;DHT22;14820;48.682;8.890;2023-07-28T04:04:41;14.30;99.90
26224;DHT22;14820;48.682;8.890;2023-07-28T04:07:07;14.40;99.90
26224;DHT22;14820;48.682;8.890;2023-07-28T04:09:32;14.40;99.90
26224;DHT22;14820;48.682;8.890;2023-07-28T04:11:58;14.40;99.90
26224;DHT22;14820;48.682;8.890;2023-07-28T04:14:24;14.40;99.90
26224;DHT22;14820;48.682;8.890;2023-07-28T04:16:49;14.40;99.90
26224;DHT22;14820;48.682;8.890;2023-07-28T04:19:15;14.50;99.90
26224;DHT22;14820;48.682;8.890;2023-07-28T04:21:41;14.50;99.90
26224;DHT22;14820;48.682;8.890;2023-07-28T04:24:07;14.50;99.90
26224;DHT22;14820;48.682;8.890;2023-07-28T04:26:33;14.50;99.90
26224;DHT22;14820;48.682;8.890;2023-07-28T04:28:59;14.50;99.90
26224;DHT22;14820;48.682;8.890;2023-07-28T04:31:25;14.60;99.90
26224;DHT22;14820;48.682;8.890;2023-07-28T04:33:51;14.60;99.90
26224;DHT22;14820;48.682;8.890;2023-07-28T04:36:16;14.60;99.90
26224;DHT22;14820;48.682;8.890;2023-07-28T04:38:42;14.60;99.90
26224;DHT22;14820;48.682;8.890;2023-07-28T04:41:07;14.60;99.90
26224;DHT22;14820;48.682;8.890;2023-07-28T04:43:33;14.60;99.90
26224;DHT22;14820;48.682;8.890;2023-07-28T04:45:59;14.60;99.90
26224;DHT22;14820;48.682;8.890;2023-07-28T04:48:24;14.70;99.90
26224;DHT22;14820;48.682;8.890;2023-07-28T04:50:50;14.70;99.90
26224;DHT22;14820;48.682;8.890;2023-07-28T04:53:15;14.70;99.90
26224;DHT22;14820;48.682;8.890;2023-07-28T04:55:41;14.70;99.90
26224;DHT22;14820;48.682;8.890;2023-07-28T04:58:07;14.70;99.90
26224;DHT22;14820;48.682;8.890;2023-07-28T05:00:32;14.70;99.90
26224;DHT22;14820;48.682;8.890;2023-07-28T05:02:58;14.70;99.90
26224;DHT22;14820;48.682;8.890;2023-07-28T05:05:24;14.70;99.90
26224;DHT22;14820;48.682;8.890;2023-07-28T05:07:49;14.70;99.90
26224;DHT22;14820;48.682;8.890;2023-07-28T05:10:15;14.70;99.90
26224;DHT22;14820;48.682;8.890;2023-07-28T05:12:40;14.80;99.90
26224;DHT22;14820;48.682;8.890;2023-07-28T05:15:06;14.80;99.90
26224;DHT22;14820;48.682;8.890;2023-07-28T05:17:36;14.80;99.90
26224;DHT22;14820;48.682;8.890;2023-07-28T05:20:02;14.80;99.90
26224;DHT22;14820;48.682;8.890;2023-07-28T05:22:28;14.80;99.90
26224;DHT22;14820;48.682;8.890;2023-07-28T05:24:53;14.80;99.90
26224;DHT22;14820;48.682;8.890;2023-07-28T05:27:19;14.90;99.90
26224;DHT22;14820;48.682;8.890;2023-07-28T05:29:44;14.90;99.90
26224;DHT22;14820;48.682;8.890;2023-07-28T05:32:10;14.80;99.90
26224;DHT22;14820;48.682;8.890;2023-07-28T05:34:36;14.80;99.90
26224;DHT22;14820;48.682;8.890;2023-07-28T05:37:01;14.90;99.90
26224;DHT22;14820;48.682;8.890;2023-07-28T05:39:27;14.90;99.90
26224;DHT22;14820;48.682;8.890;2023-07-28T05:41:53;14.90;99.90
26224;DHT22;14820;48.682;8.890;2023-07-28T05:44:19;15.00;99.90
26224;DHT22;14820;48.682;8.890;2023-07-28T05:46:45;15.00;99.90
26224;DHT22;14820;48.682;8.890;2023-07-28T05:49:11;15.00;99.90
26224;DHT22;14820;48.682;8.890;2023-07-28T05:51:36;15.00;99.90
26224;DHT22;14820;48.682;8.890;2023-07-28T05:54:02;15.00;99.90
26224;DHT22;14820;48.682;8.890;2023-07-28T05:56:28;15.10;99.90
26224;DHT22;14820;48.682;8.890;2023-07-28T05:58:55;15.00;99.90
26224;DHT22;14820;48.682;8.890;2023-07-28T06:01:20;15.10;99.90
26224;DHT22;14820;48.682;8.890;2023-07-28T06:03:46;15.10;99.90
26224;DHT22;14820;48.682;8.890;2023-07-28T06:06:12;15.10;99.90
26224;DHT22;14820;48.682;8.890;2023-07-28T06:08:38;15.10;99.90
26224;DHT22;14820;48.682;8.890;2023-07-28T06:11:05;15.10;99.90
26224;DHT22;14820;48.682;8.890;2023-07-28T06:13:31;15.20;99.90
26224;DHT22;14820;48.682;8.890;2023-07-28T06:15:57;15.20;99.90
26224;DHT22;14820;48.682;8.890;2023-07-28T06:18:24;15.20;99.90
26224;DHT22;14820;48.682;8.890;2023-07-28T06:20:49;15.30;99.90
26224;DHT22;14820;48.682;8.890;2023-07-28T06:23:15;15.30;99.90
26224;DHT22;14820;48.682;8.890;2023-07-28T06:25:41;15.30;99.90
26224;DHT22;14820;48.682;8.890;2023-07-28T06:28:13;15.40;99.90
26224;DHT22;14820;48.682;8.890;2023-07-28T06:30:38;15.40;99.90
26224;DHT22;14820;48.682;8.890;2023-07-28T06:33:09;15.40;99.90
26224;DHT22;14820;48.682;8.890;2023-07-28T06:35:35;15.40;99.90
26224;DHT22;14820;48.682;8.890;2023-07-28T06:38:01;15.50;99.90
26224;DHT22;14820;48.682;8.890;2023-07-28T06:40:27;15.50;99.90
26224;DHT22;14820;48.682;8.890;2023-07-28T06:42:53;15.50;99.90
26224;DHT22;14820;48.682;8.890;2023-07-28T06:45:20;15.60;99.90
26224;DHT22;14820;48.682;8.890;2023-07-28T06:47:46;15.60;99.90
26224;DHT22;14820;48.682;8.890;2023-07-28T06:50:12;15.60;99.90
26224;DHT22;14820;48.682;8.890;2023-07-28T06:52:37;15.70;99.90
26224;DHT22;14820;48.682;8.890;2023-07-28T06:55:04;15.70;99.90
26224;DHT22;14820;48.682;8.890;2023-07-28T06:57:30;15.80;99.90
26224;DHT22;14820;48.682;8.890;2023-07-28T06:59:56;15.80;99.90
26224;DHT22;14820;48.682;8.890;2023-07-28T07:02:22;15.80;99.90
26224;DHT22;14820;48.682;8.890;2023-07-28T07:04:48;15.90;99.90
26224;DHT22;14820;48.682;8.890;2023-07-28T07:07:13;15.90;99.90
26224;DHT22;14820;48.682;8.890;2023-07-28T07:09:39;15.90;99.90
26224;DHT22;14820;48.682;8.890;2023-07-28T07:12:08;16.00;99.90
26224;DHT22;14820;48.682;8.890;2023-07-28T07:14:33;16.00;99.90
26224;DHT22;14820;48.682;8.890;2023-07-28T07:16:59;16.00;99.90
26224;DHT22;14820;48.682;8.890;2023-07-28T07:19:25;16.10;99.90
26224;DHT22;14820;48.682;8.890;2023-07-28T07:21:51;16.20;99.90
26224;DHT22;14820;48.682;8.890;2023-07-28T07:24:16;16.20;99.90
26224;DHT22;14820;48.682;8.890;2023-07-28T07:26:42;16.30;99.90
26224;DHT22;14820;48.682;8.890;2023-07-28T07:29:08;16.30;99.90
26224;DHT22;14820;48.682;8.890;2023-07-28T07:31:35;16.40;99.90
26224;DHT22;14820;48.682;8.890;2023-07-28T07:34:00;16.50;99.90
26224;DHT22;14820;48.682;8.890;2023-07-28T07:36:26;16.50;99.90
26224;DHT22;14820;48.682;8.890;2023-07-28T07:38:52;16.60;99.90
26224;DHT22;14820;48.682;8.890;2023-07-28T07:41:18;16.70;99.90
26224;DHT22;14820;48.682;8.890;2023-07-28T07:43:47;16.70;99.90
26224;DHT22;14820;48.682;8.890;2023-07-28T07:46:14;16.80;99.90
26224;DHT22;14820;48.682;8.890;2023-07-28T07:48:40;16.90;99.90
26224;DHT22;14820;48.682;8.890;2023-07-28T07:51:07;16.90;99.90
26224;DHT22;14820;48.682;8.890;2023-07-28T07:53:32;17.00;99.90
26224;DHT22;14820;48.682;8.890;2023-07-28T07:55:58;17.00;99.90
26224;DHT22;14820;48.682;8.890;2023-07-28T07:58:24;17.00;99.90
26224;DHT22;14820;48.682;8.890;2023-07-28T08:00:49;17.10;99.90
26224;DHT22;14820;48.682;8.890;2023-07-28T08:03:15;17.10;99.90
26224;DHT22;14820;48.682;8.890;2023-07-28T08:05:40;17.20;99.90
26224;DHT22;14820;48.682;8.890;2023-07-28T08:08:07;17.30;99.90
26224;DHT22;14820;48.682;8.890;2023-07-28T08:10:33;17.40;99.90
26224;DHT22;14820;48.682;8.890;2023-07-28T08:12:59;17.50;99.90
26224;DHT22;14820;48.682;8.890;2023-07-28T08:15:25;17.50;99.90
26224;DHT22;14820;48.682;8.890;2023-07-28T08:17:51;17.60;99.90
26224;DHT22;14820;48.682;8.890;2023-07-28T08:20:17;17.70;99.90
26224;DHT22;14820;48.682;8.890;2023-07-28T08:22:43;17.70;99.90
26224;DHT22;14820;48.682;8.890;2023-07-28T08:25:09;17.80;99.90
26224;DHT22;14820;48.682;8.890;2023-07-28T08:27:34;17.90;99.90
26224;DHT22;14820;48.682;8.890;2023-07-28T08:30:00;17.90;99.90
26224;DHT22;14820;48.682;8.890;2023-07-28T08:32:26;17.90;99.90
26224;DHT22;14820;48.682;8.890;2023-07-28T08:34:51;18.10;99.90
26224;DHT22;14820;48.682;8.890;2023-07-28T08:37:17;18.10;99.90
26224;DHT22;14820;48.682;8.890;2023-07-28T08:39:43;18.20;99.90
26224;DHT22;14820;48.682;8.890;2023-07-28T08:42:08;18.30;99.90
26224;DHT22;14820;48.682;8.890;2023-07-28T08:44:35;18.40;99.90
26224;DHT22;14820;48.682;8.890;2023-07-28T08:47:02;18.60;99.90
26224;DHT22;14820;48.682;8.890;2023-07-28T08:49:29;18.70;99.90
26224;DHT22;14820;48.682;8.890;2023-07-28T08:51:59;18.80;99.90
26224;DHT22;14820;48.682;8.890;2023-07-28T08:54:25;18.90;99.90
26224;DHT22;14820;48.682;8.890;2023-07-28T08:56:50;19.00;99.90
26224;DHT22;14820;48.682;8.890;2023-07-28T08:59:26;19.10;99.90
26224;DHT22;14820;48.682;8.890;2023-07-28T09:01:57;19.20;99.90
26224;DHT22;14820;48.682;8.890;2023-07-28T09:04:25;19.30;99.90
26224;DHT22;14820;48.682;8.890;2023-07-28T09:06:51;19.40;99.90
26224;DHT22;14820;48.682;8.890;2023-07-28T09:09:20;19.40;99.90
26224;DHT22;14820;48.682;8.890;2023-07-28T09:11:49;19.40;99.90
26224;DHT22;14820;48.682;8.890;2023-07-28T09:14:16;19.50;99.90
26224;DHT22;14820;48.682;8.890;2023-07-28T09:16:43;19.40;99.90
26224;DHT22;14820;48.682;8.890;2023-07-28T09:19:09;19.40;99.90
26224;DHT22;14820;48.682;8.890;2023-07-28T09:21:35;19.40;99.90
26224;DHT22;14820;48.682;8.890;2023-07-28T09:24:06;19.50;99.90
26224;DHT22;14820;48.682;8.890;2023-07-28T09:29:21;20.00;99.90
26224;DHT22;14820;48.682;8.890;2023-07-28T09:31:49;20.10;99.90
26224;DHT22;14820;48.682;8.890;2023-07-28T09:34:27;20.20;99.90
26224;DHT22;14820;48.682;8.890;2023-07-28T09:36:54;20.30;99.90
26224;DHT22;14820;48.682;8.890;2023-07-28T09:39:21;20.30;99.90
26224;DHT22;14820;48.682;8.890;2023-07-28T09:41:47;20.30;99.90
26224;DHT22;14820;48.682;8.890;2023-07-28T09:44:13;20.30;99.90
26224;DHT22;14820;48.682;8.890;2023-07-28T09:46:59;20.20;99.90
26224;DHT22;14820;48.682;8.890;2023-07-28T09:49:38;20.10;99.90
26224;DHT22;14820;48.682;8.890;2023-07-28T09:52:05;20.00;99.90
26224;DHT22;14820;48.682;8.890;2023-07-28T09:54:39;20.00;99.90
26224;DHT22;14820;48.682;8.890;2023-07-28T09:57:11;20.00;99.90
26224;DHT22;14820;48.682;8.890;2023-07-28T09:59:39;20.00;99.90
26224;DHT22;14820;48.682;8.890;2023-07-28T10:02:05;20.10;99.90
26224;DHT22;14820;48.682;8.890;2023-07-28T10:04:32;20.10;99.90
26224;DHT22;14820;48.682;8.890;2023-07-28T10:06:58;20.20;99.90
26224;DHT22;14820;48.682;8.890;2023-07-28T10:09:25;20.20;99.90
26224;DHT22;14820;48.682;8.890;2023-07-28T10:14:35;20.50;99.90
26224;DHT22;14820;48.682;8.890;2023-07-28T10:17:06;20.70;99.90
26224;DHT22;14820;48.682;8.890;2023-07-28T10:19:43;20.70;99.90
26224;DHT22;14820;48.682;8.890;2023-07-28T10:22:12;20.70;99.90
26224;DHT22;14820;48.682;8.890;2023-07-28T10:24:54;20.80;99.90
26224;DHT22;14820;48.682;8.890;2023-07-28T10:27:40;20.90;99.90
26224;DHT22;14820;48.682;8.890;2023-07-28T10:30:10;20.90;99.90
26224;DHT22;14820;48.682;8.890;2023-07-28T10:32:41;20.90;99.90
26224;DHT22;14820;48.682;8.890;2023-07-28T10:37:46;20.90;99.90
26224;DHT22;14820;48.682;8.890;2023-07-28T10:40:29;20.90;99.90
26224;DHT22;14820;48.682;8.890;2023-07-28T10:43:04;20.90;99.90
26224;DHT22;14820;48.682;8.890;2023-07-28T10:45:32;20.90;99.90
26224;DHT22;14820;48.682;8.890;2023-07-28T10:47:59;21.00;99.90
26224;DHT22;14820;48.682;8.890;2023-07-28T10:50:29;21.00;99.90
26224;DHT22;14820;48.682;8.890;2023-07-28T10:52:55;21.00;99.90
26224;DHT22;14820;48.682;8.890;2023-07-28T10:55:26;21.10;99.90
26224;DHT22;14820;48.682;8.890;2023-07-28T10:57:53;21.10;99.90
26224;DHT22;14820;48.682;8.890;2023-07-28T11:00:21;21.00;99.90
26224;DHT22;14820;48.682;8.890;2023-07-28T11:02:49;21.00;99.90
26224;DHT22;14820;48.682;8.890;2023-07-28T11:05:28;21.00;99.90
26224;DHT22;14820;48.682;8.890;2023-07-28T11:07:58;21.00;99.90
26224;DHT22;14820;48.682;8.890;2023-07-28T11:10:25;21.00;99.90
26224;DHT22;14820;48.682;8.890;2023-07-28T11:12:53;21.00;99.90
26224;DHT22;14820;48.682;8.890;2023-07-28T11:15:19;21.10;99.90
26224;DHT22;14820;48.682;8.890;2023-07-28T11:17:50;21.10;99.90
26224;DHT22;14820;48.682;8.890;2023-07-28T11:20:17;21.10;99.90
26224;DHT22;14820;48.682;8.890;2023-07-28T11:22:51;21.10;99.90
26224;DHT22;14820;48.682;8.890;2023-07-28T11:25:17;21.10;99.90
26224;DHT22;14820;48.682;8.890;2023-07-28T11:27:44;21.10;99.90
26224;DHT22;14820;48.682;8.890;2023-07-28T11:30:12;21.00;99.90
26224;DHT22;14820;48.682;8.890;2023-07-28T11:32:38;20.90;99.90
26224;DHT22;14820;48.682;8.890;2023-07-28T11:35:09;20.80;99.90
26224;DHT22;14820;48.682;8.890;2023-07-28T11:37:36;20.60;99.90
26224;DHT22;14820;48.682;8.890;2023-07-28T11:40:03;20.50;99.90
26224;DHT22;14820;48.682;8.890;2023-07-28T11:42:33;20.40;99.90
26224;DHT22;14820;48.682;8.890;2023-07-28T11:45:04;20.20;99.90
26224;DHT22;14820;48.682;8.890;2023-07-28T11:47:30;20.20;99.90
26224;DHT22;14820;48.682;8.890;2023-07-28T11:49:57;20.10;99.90
26224;DHT22;14820;48.682;8.890;2023-07-28T11:55:01;20.10;99.90
26224;DHT22;14820;48.682;8.890;2023-07-28T11:57:29;20.10;99.90
26224;DHT22;14820;48.682;8.890;2023-07-28T11:59:59;20.10;99.90
26224;DHT22;14820;48.682;8.890;2023-07-28T12:02:28;20.10;99.90
26224;DHT22;14820;48.682;8.890;2023-07-28T12:04:54;20.20;99.90
26224;DHT22;14820;48.682;8.890;2023-07-28T12:07:31;20.20;99.90
26224;DHT22;14820;48.682;8.890;2023-07-28T12:10:03;20.20;99.90
26224;DHT22;14820;48.682;8.890;2023-07-28T12:12:31;20.30;99.90
26224;DHT22;14820;48.682;8.890;2023-07-28T12:14:58;20.30;99.90
26224;DHT22;14820;48.682;8.890;2023-07-28T12:17:30;20.40;99.90
26224;DHT22;14820;48.682;8.890;2023-07-28T12:20:06;20.40;99.90
26224;DHT22;14820;48.682;8.890;2023-07-28T12:22:41;20.50;99.90
26224;DHT22;14820;48.682;8.890;2023-07-28T12:25:07;20.50;99.90
26224;DHT22;14820;48.682;8.890;2023-07-28T12:27:33;20.60;99.90
26224;DHT22;14820;48.682;8.890;2023-07-28T12:29:59;20.70;99.90
26224;DHT22;14820;48.682;8.890;2023-07-28T12:32:25;20.80;99.90
26224;DHT22;14820;48.682;8.890;2023-07-28T12:34:51;20.80;99.90
26224;DHT22;14820;48.682;8.890;2023-07-28T12:37:19;20.80;99.90
26224;DHT22;14820;48.682;8.890;2023-07-28T12:39:46;20.80;99.90
26224;DHT22;14820;48.682;8.890;2023-07-28T12:42:12;20.80;99.90
26224;DHT22;14820;48.682;8.890;2023-07-28T12:44:39;20.80;99.90
26224;DHT22;14820;48.682;8.890;2023-07-28T12:47:04;20.80;99.90
26224;DHT22;14820;48.682;8.890;2023-07-28T12:49:31;20.80;99.90
26224;DHT22;14820;48.682;8.890;2023-07-28T12:51:58;20.80;99.90
26224;DHT22;14820;48.682;8.890;2023-07-28T12:54:24;20.80;99.90
26224;DHT22;14820;48.682;8.890;2023-07-28T12:56:51;20.80;99.90
26224;DHT22;14820;48.682;8.890;2023-07-28T12:59:17;20.80;99.90
26224;DHT22;14820;48.682;8.890;2023-07-28T13:01:42;20.70;99.90
26224;DHT22;14820;48.682;8.890;2023-07-28T13:04:08;20.70;99.90
26224;DHT22;14820;48.682;8.890;2023-07-28T13:06:34;20.70;99.90
26224;DHT22;14820;48.682;8.890;2023-07-28T13:08:59;20.70;99.90
26224;DHT22;14820;48.682;8.890;2023-07-28T13:11:25;20.70;99.90
26224;DHT22;14820;48.682;8.890;2023-07-28T13:13:51;20.60;99.90
26224;DHT22;14820;48.682;8.890;2023-07-28T13:16:16;20.60;99.90
26224;DHT22;14820;48.682;8.890;2023-07-28T13:18:43;20.60;99.90
26224;DHT22;14820;48.682;8.890;2023-07-28T13:21:09;20.50;99.90
26224;DHT22;14820;48.682;8.890;2023-07-28T13:23:36;20.50;99.90
26224;DHT22;14820;48.682;8.890;2023-07-28T13:26:02;20.50;99.90
26224;DHT22;14820;48.682;8.890;2023-07-28T13:28:31;20.30;99.90
26224;DHT22;14820;48.682;8.890;2023-07-28T13:30:56;20.10;99.90
26224;DHT22;14820;48.682;8.890;2023-07-28T13:33:22;20.00;99.90
26224;DHT22;14820;48.682;8.890;2023-07-28T13:35:48;19.80;99.90
26224;DHT22;14820;48.682;8.890;2023-07-28T13:38:14;19.60;99.90
26224;DHT22;14820;48.682;8.890;2023-07-28T13:40:40;19.50;99.90
26224;DHT22;14820;48.682;8.890;2023-07-28T13:43:05;19.40;99.90
26224;DHT22;14820;48.682;8.890;2023-07-28T13:45:31;19.30;99.90
26224;DHT22;14820;48.682;8.890;2023-07-28T13:47:57;19.30;99.90
26224;DHT22;14820;48.682;8.890;2023-07-28T13:50:22;19.30;99.90
26224;DHT22;14820;48.682;8.890;2023-07-28T13:52:48;19.20;99.90
26224;DHT22;14820;48.682;8.890;2023-07-28T13:55:14;19.20;99.90
26224;DHT22;14820;48.682;8.890;2023-07-28T13:57:40;19.10;99.90
26224;DHT22;14820;48.682;8.890;2023-07-28T14:00:07;19.10;99.90
26224;DHT22;14820;48.682;8.890;2023-07-28T14:02:36;19.10;99.90
26224;DHT22;14820;48.682;8.890;2023-07-28T14:05:03;19.10;99.90
26224;DHT22;14820;48.682;8.890;2023-07-28T14:07:29;19.10;99.90
26224;DHT22;14820;48.682;8.890;2023-07-28T14:09:54;19.00;99.90
26224;DHT22;14820;48.682;8.890;2023-07-28T14:12:20;19.00;99.90
26224;DHT22;14820;48.682;8.890;2023-07-28T14:14:46;18.90;99.90
26224;DHT22;14820;48.682;8.890;2023-07-28T14:17:11;18.90;99.90
26224;DHT22;14820;48.682;8.890;2023-07-28T14:19:40;18.90;99.90
26224;DHT22;14820;48.682;8.890;2023-07-28T14:22:06;18.90;99.90
26224;DHT22;14820;48.682;8.890;2023-07-28T14:24:32;18.80;99.90
26224;DHT22;14820;48.682;8.890;2023-07-28T14:26:58;18.80;99.90
26224;DHT22;14820;48.682;8.890;2023-07-28T14:29:23;18.80;99.90
26224;DHT22;14820;48.682;8.890;2023-07-28T14:31:49;18.80;99.90
26224;DHT22;14820;48.682;8.890;2023-07-28T14:34:15;18.80;99.90
26224;DHT22;14820;48.682;8.890;2023-07-28T14:36:41;18.90;99.90
26224;DHT22;14820;48.682;8.890;2023-07-28T14:39:07;19.00;99.90
26224;DHT22;14820;48.682;8.890;2023-07-28T14:41:32;19.00;99.90
26224;DHT22;14820;48.682;8.890;2023-07-28T14:43:58;19.00;99.90
26224;DHT22;14820;48.682;8.890;2023-07-28T14:46:24;19.10;99.90
26224;DHT22;14820;48.682;8.890;2023-07-28T14:48:53;19.10;99.90
26224;DHT22;14820;48.682;8.890;2023-07-28T14:51:19;19.20;99.90
26224;DHT22;14820;48.682;8.890;2023-07-28T14:53:44;19.20;99.90
26224;DHT22;14820;48.682;8.890;2023-07-28T14:56:13;19.20;99.90
26224;DHT22;14820;48.682;8.890;2023-07-28T14:58:39;19.20;99.90
26224;DHT22;14820;48.682;8.890;2023-07-28T15:01:10;19.30;99.90
26224;DHT22;14820;48.682;8.890;2023-07-28T15:03:36;19.40;99.90
26224;DHT22;14820;48.682;8.890;2023-07-28T15:06:02;19.40;99.90
26224;DHT22;14820;48.682;8.890;2023-07-28T15:08:28;19.40;99.90
26224;DHT22;14820;48.682;8.890;2023-07-28T15:10:55;19.40;99.90
26224;DHT22;14820;48.682;8.890;2023-07-28T15:13:21;19.40;99.90
26224;DHT22;14820;48.682;8.890;2023-07-28T15:15:47;19.40;99.90
26224;DHT22;14820;48.682;8.890;2023-07-28T15:18:13;19.30;99.90
26224;DHT22;14820;48.682;8.890;2023-07-28T15:20:40;19.40;99.90
26224;DHT22;14820;48.682;8.890;2023-07-28T15:23:06;19.30;99.90
26224;DHT22;14820;48.682;8.890;2023-07-28T15:25:31;19.40;99.90
26224;DHT22;14820;48.682;8.890;2023-07-28T15:27:57;19.30;99.90
26224;DHT22;14820;48.682;8.890;2023-07-28T15:30:23;19.30;99.90
26224;DHT22;14820;48.682;8.890;2023-07-28T15:32:48;19.30;99.90
26224;DHT22;14820;48.682;8.890;2023-07-28T15:35:14;19.30;99.90
26224;DHT22;14820;48.682;8.890;2023-07-28T15:37:40;19.30;99.90
26224;DHT22;14820;48.682;8.890;2023-07-28T15:40:06;19.30;99.90